Kezdőlap
METAR-TAF:

METAR-TAF

Repülőterek :

Korfui nemzetközi repülőtér

Korfu, Görögország

földrajzi szélesség: 39-37N, földrajzi hosszúság: 019-55E, magasság: 2 m

Jelenlegi meteorológiai megfigyelések

A jelentés 17 perccel ezelõtt készült, 11:50 UTC
Dél-délkeleti szél 7 kt
Hőmérséklet 18°C
Páratartalom 59%
Légköri nyomás 1020 hPa
Látótávolság 10 km, vagy több
Kevés felhő 2000 lábon

METAR: LGKR 181150Z 15007KT 9999 FEW020 18/10 Q1020 NOSIG

Idő: 14:07 (12:07 UTC)

Előrejelzés

A jelentés 1 órával és 7 perccel ezelõtt készült, 11:00 UTC
Az előrejelzés 18-én 12 óra UTC és 19-én 12 óra UTC között érvényes
Észak-északnyugati szél 8 kt
Látótávolság 10 km, vagy több
Kevés felhő 2500 lábon

TAF: LGKR 181100Z 1812/1912 33008KT 9999 FEW025

Meteorológiai megfigyelések és előrejelzések több, mint 4000 repülőtéren (METAR és TAF jelentéseket).

A térképen piros és sárga pontok jelzik az elérhető meteorológiai állomásokat.

Mozgassa az egeret a pont fölött, hogy megjelenjen az állomás neve.

Azután kattintson az időjárási megfigyelések és előrejelzések megtekintéséhez.

A térkép megváltoztatása: kattintson a fekete keresztel jelölt zöld gombra ráközelítéshez, a vonallal jelölt zöld gombra távolításhoz, vagy a zöld nyilakra a szomszédos térképek eléréséhez.


METAR-TAF: